sensor_id;sensor_type;location;lat;lon;timestamp;P1;durP1;ratioP1;P2;durP2;ratioP2
66966;SDS011;53900;51.468;-2.586;2023-07-13T00:01:49;6.95;;;1.67;;
66966;SDS011;53900;51.468;-2.586;2023-07-13T00:04:19;8.13;;;2.13;;
66966;SDS011;53900;51.468;-2.586;2023-07-13T00:06:45;9.00;;;2.13;;
66966;SDS011;53900;51.468;-2.586;2023-07-13T00:09:14;5.75;;;1.95;;
66966;SDS011;53900;51.468;-2.586;2023-07-13T00:11:40;8.57;;;2.40;;
66966;SDS011;53900;51.468;-2.586;2023-07-13T00:14:05;12.65;;;2.05;;
66966;SDS011;53900;51.468;-2.586;2023-07-13T00:16:33;9.45;;;1.48;;
66966;SDS011;53900;51.468;-2.586;2023-07-13T00:18:58;12.73;;;1.85;;
66966;SDS011;53900;51.468;-2.586;2023-07-13T00:21:25;5.97;;;1.75;;
66966;SDS011;53900;51.468;-2.586;2023-07-13T00:23:50;9.38;;;1.65;;
66966;SDS011;53900;51.468;-2.586;2023-07-13T00:26:16;7.10;;;1.50;;
66966;SDS011;53900;51.468;-2.586;2023-07-13T00:28:42;6.47;;;1.60;;
66966;SDS011;53900;51.468;-2.586;2023-07-13T00:31:08;8.30;;;2.00;;
66966;SDS011;53900;51.468;-2.586;2023-07-13T00:33:33;8.15;;;1.80;;
66966;SDS011;53900;51.468;-2.586;2023-07-13T00:35:58;4.32;;;1.63;;
66966;SDS011;53900;51.468;-2.586;2023-07-13T00:38:24;4.95;;;1.63;;
66966;SDS011;53900;51.468;-2.586;2023-07-13T00:40:49;4.07;;;1.70;;
66966;SDS011;53900;51.468;-2.586;2023-07-13T00:43:15;6.90;;;1.90;;
66966;SDS011;53900;51.468;-2.586;2023-07-13T00:48:13;9.90;;;1.75;;
66966;SDS011;53900;51.468;-2.586;2023-07-13T00:50:39;4.57;;;1.60;;
66966;SDS011;53900;51.468;-2.586;2023-07-13T00:53:05;10.00;;;1.88;;
66966;SDS011;53900;51.468;-2.586;2023-07-13T00:55:30;9.60;;;1.80;;
66966;SDS011;53900;51.468;-2.586;2023-07-13T00:57:56;3.05;;;1.60;;
66966;SDS011;53900;51.468;-2.586;2023-07-13T01:00:21;7.88;;;1.70;;
66966;SDS011;53900;51.468;-2.586;2023-07-13T01:02:47;7.43;;;1.40;;
66966;SDS011;53900;51.468;-2.586;2023-07-13T01:05:14;7.97;;;1.60;;
66966;SDS011;53900;51.468;-2.586;2023-07-13T01:07:40;7.03;;;1.75;;
66966;SDS011;53900;51.468;-2.586;2023-07-13T01:10:06;7.70;;;2.00;;
66966;SDS011;53900;51.468;-2.586;2023-07-13T01:12:32;6.80;;;1.95;;
66966;SDS011;53900;51.468;-2.586;2023-07-13T01:15:00;9.77;;;2.42;;
66966;SDS011;53900;51.468;-2.586;2023-07-13T01:17:26;4.57;;;1.70;;
66966;SDS011;53900;51.468;-2.586;2023-07-13T01:19:51;6.45;;;1.67;;
66966;SDS011;53900;51.468;-2.586;2023-07-13T01:22:17;7.55;;;2.05;;
66966;SDS011;53900;51.468;-2.586;2023-07-13T01:24:44;7.18;;;1.75;;
66966;SDS011;53900;51.468;-2.586;2023-07-13T01:27:11;7.88;;;1.80;;
66966;SDS011;53900;51.468;-2.586;2023-07-13T01:29:37;7.40;;;1.67;;
66966;SDS011;53900;51.468;-2.586;2023-07-13T01:32:10;10.23;;;2.28;;
66966;SDS011;53900;51.468;-2.586;2023-07-13T01:34:35;10.90;;;1.80;;
66966;SDS011;53900;51.468;-2.586;2023-07-13T01:37:02;6.43;;;2.05;;
66966;SDS011;53900;51.468;-2.586;2023-07-13T01:39:27;10.27;;;1.77;;
66966;SDS011;53900;51.468;-2.586;2023-07-13T01:41:52;13.57;;;2.67;;
66966;SDS011;53900;51.468;-2.586;2023-07-13T01:44:17;8.43;;;1.80;;
66966;SDS011;53900;51.468;-2.586;2023-07-13T01:46:43;8.00;;;2.35;;
66966;SDS011;53900;51.468;-2.586;2023-07-13T01:49:08;4.40;;;2.00;;
66966;SDS011;53900;51.468;-2.586;2023-07-13T01:51:33;8.35;;;1.75;;
66966;SDS011;53900;51.468;-2.586;2023-07-13T01:53:58;6.22;;;2.13;;
66966;SDS011;53900;51.468;-2.586;2023-07-13T01:56:24;4.45;;;1.55;;
66966;SDS011;53900;51.468;-2.586;2023-07-13T01:58:49;9.82;;;1.60;;
66966;SDS011;53900;51.468;-2.586;2023-07-13T02:01:14;7.35;;;1.70;;
66966;SDS011;53900;51.468;-2.586;2023-07-13T02:03:40;6.97;;;1.63;;
66966;SDS011;53900;51.468;-2.586;2023-07-13T02:06:05;7.35;;;1.88;;
66966;SDS011;53900;51.468;-2.586;2023-07-13T02:08:32;7.15;;;2.17;;
66966;SDS011;53900;51.468;-2.586;2023-07-13T02:10:57;5.88;;;1.75;;
66966;SDS011;53900;51.468;-2.586;2023-07-13T02:13:22;10.55;;;2.30;;
66966;SDS011;53900;51.468;-2.586;2023-07-13T02:15:50;8.80;;;2.05;;
66966;SDS011;53900;51.468;-2.586;2023-07-13T02:18:15;9.55;;;1.77;;
66966;SDS011;53900;51.468;-2.586;2023-07-13T02:20:42;5.72;;;1.88;;
66966;SDS011;53900;51.468;-2.586;2023-07-13T02:23:07;4.80;;;1.90;;
66966;SDS011;53900;51.468;-2.586;2023-07-13T02:25:32;7.65;;;1.90;;
66966;SDS011;53900;51.468;-2.586;2023-07-13T02:27:57;8.20;;;1.65;;
66966;SDS011;53900;51.468;-2.586;2023-07-13T02:30:22;10.60;;;2.08;;
66966;SDS011;53900;51.468;-2.586;2023-07-13T02:32:49;5.55;;;2.00;;
66966;SDS011;53900;51.468;-2.586;2023-07-13T02:35:15;8.13;;;2.00;;
66966;SDS011;53900;51.468;-2.586;2023-07-13T02:37:40;6.53;;;1.55;;
66966;SDS011;53900;51.468;-2.586;2023-07-13T02:40:06;8.63;;;1.98;;
66966;SDS011;53900;51.468;-2.586;2023-07-13T02:42:33;8.52;;;1.75;;
66966;SDS011;53900;51.468;-2.586;2023-07-13T02:44:58;4.00;;;1.63;;
66966;SDS011;53900;51.468;-2.586;2023-07-13T02:47:24;8.80;;;1.70;;
66966;SDS011;53900;51.468;-2.586;2023-07-13T02:49:49;6.70;;;1.52;;
66966;SDS011;53900;51.468;-2.586;2023-07-13T02:52:14;6.60;;;1.55;;
66966;SDS011;53900;51.468;-2.586;2023-07-13T02:54:39;5.35;;;1.55;;
66966;SDS011;53900;51.468;-2.586;2023-07-13T02:57:05;6.03;;;1.73;;
66966;SDS011;53900;51.468;-2.586;2023-07-13T02:59:30;5.72;;;1.33;;
66966;SDS011;53900;51.468;-2.586;2023-07-13T03:01:56;6.28;;;1.48;;
66966;SDS011;53900;51.468;-2.586;2023-07-13T03:04:21;7.68;;;1.55;;
66966;SDS011;53900;51.468;-2.586;2023-07-13T03:06:46;8.68;;;2.75;;
66966;SDS011;53900;51.468;-2.586;2023-07-13T03:09:12;6.93;;;1.30;;
66966;SDS011;53900;51.468;-2.586;2023-07-13T03:11:37;8.45;;;1.60;;
66966;SDS011;53900;51.468;-2.586;2023-07-13T03:14:03;5.40;;;1.55;;
66966;SDS011;53900;51.468;-2.586;2023-07-13T03:16:28;6.82;;;1.50;;
66966;SDS011;53900;51.468;-2.586;2023-07-13T03:18:53;3.15;;;1.00;;
66966;SDS011;53900;51.468;-2.586;2023-07-13T03:21:18;8.55;;;1.70;;
66966;SDS011;53900;51.468;-2.586;2023-07-13T03:23:44;13.90;;;1.73;;
66966;SDS011;53900;51.468;-2.586;2023-07-13T03:26:10;5.90;;;1.55;;
66966;SDS011;53900;51.468;-2.586;2023-07-13T03:28:36;7.78;;;1.30;;
66966;SDS011;53900;51.468;-2.586;2023-07-13T03:33:26;9.07;;;1.75;;
66966;SDS011;53900;51.468;-2.586;2023-07-13T03:35:51;10.25;;;1.40;;
66966;SDS011;53900;51.468;-2.586;2023-07-13T03:38:17;8.02;;;1.50;;
66966;SDS011;53900;51.468;-2.586;2023-07-13T03:40:42;8.00;;;1.40;;
66966;SDS011;53900;51.468;-2.586;2023-07-13T03:43:07;6.47;;;1.35;;
66966;SDS011;53900;51.468;-2.586;2023-07-13T03:45:32;8.20;;;1.35;;
66966;SDS011;53900;51.468;-2.586;2023-07-13T03:47:58;7.95;;;1.90;;
66966;SDS011;53900;51.468;-2.586;2023-07-13T03:50:23;7.07;;;1.50;;
66966;SDS011;53900;51.468;-2.586;2023-07-13T03:52:48;7.60;;;1.50;;
66966;SDS011;53900;51.468;-2.586;2023-07-13T03:55:13;6.38;;;1.90;;
66966;SDS011;53900;51.468;-2.586;2023-07-13T03:57:39;7.65;;;1.88;;
66966;SDS011;53900;51.468;-2.586;2023-07-13T04:00:04;6.20;;;1.80;;
66966;SDS011;53900;51.468;-2.586;2023-07-13T04:02:30;6.60;;;1.35;;
66966;SDS011;53900;51.468;-2.586;2023-07-13T04:04:56;6.70;;;1.60;;
66966;SDS011;53900;51.468;-2.586;2023-07-13T04:07:21;7.32;;;1.35;;
66966;SDS011;53900;51.468;-2.586;2023-07-13T04:09:46;5.13;;;1.38;;
66966;SDS011;53900;51.468;-2.586;2023-07-13T04:12:12;5.00;;;1.10;;
66966;SDS011;53900;51.468;-2.586;2023-07-13T04:14:37;7.07;;;1.50;;
66966;SDS011;53900;51.468;-2.586;2023-07-13T04:17:02;5.20;;;1.40;;
66966;SDS011;53900;51.468;-2.586;2023-07-13T04:19:27;4.82;;;1.42;;
66966;SDS011;53900;51.468;-2.586;2023-07-13T04:21:53;5.70;;;1.35;;
66966;SDS011;53900;51.468;-2.586;2023-07-13T04:24:18;5.15;;;1.42;;
66966;SDS011;53900;51.468;-2.586;2023-07-13T04:26:44;7.72;;;2.17;;
66966;SDS011;53900;51.468;-2.586;2023-07-13T04:29:09;2.47;;;1.20;;
66966;SDS011;53900;51.468;-2.586;2023-07-13T04:31:34;3.42;;;1.50;;
66966;SDS011;53900;51.468;-2.586;2023-07-13T04:33:59;5.82;;;1.40;;
66966;SDS011;53900;51.468;-2.586;2023-07-13T04:36:25;5.72;;;1.40;;
66966;SDS011;53900;51.468;-2.586;2023-07-13T04:38:53;5.70;;;1.70;;
66966;SDS011;53900;51.468;-2.586;2023-07-13T04:41:21;5.80;;;1.80;;
66966;SDS011;53900;51.468;-2.586;2023-07-13T04:43:46;11.65;;;1.50;;
66966;SDS011;53900;51.468;-2.586;2023-07-13T04:46:13;6.25;;;1.50;;
66966;SDS011;53900;51.468;-2.586;2023-07-13T04:48:38;3.22;;;1.38;;
66966;SDS011;53900;51.468;-2.586;2023-07-13T04:51:04;7.45;;;1.70;;
66966;SDS011;53900;51.468;-2.586;2023-07-13T04:53:30;9.65;;;1.65;;
66966;SDS011;53900;51.468;-2.586;2023-07-13T04:55:55;5.72;;;1.52;;
66966;SDS011;53900;51.468;-2.586;2023-07-13T04:58:21;6.28;;;1.40;;
66966;SDS011;53900;51.468;-2.586;2023-07-13T05:00:46;6.18;;;2.10;;
66966;SDS011;53900;51.468;-2.586;2023-07-13T05:03:11;9.93;;;2.08;;
66966;SDS011;53900;51.468;-2.586;2023-07-13T05:05:37;6.22;;;1.67;;
66966;SDS011;53900;51.468;-2.586;2023-07-13T05:08:02;11.13;;;1.85;;
66966;SDS011;53900;51.468;-2.586;2023-07-13T05:10:27;5.13;;;1.30;;
66966;SDS011;53900;51.468;-2.586;2023-07-13T05:12:53;5.97;;;1.67;;
66966;SDS011;53900;51.468;-2.586;2023-07-13T05:15:20;5.47;;;1.50;;
66966;SDS011;53900;51.468;-2.586;2023-07-13T05:17:46;7.07;;;1.95;;
66966;SDS011;53900;51.468;-2.586;2023-07-13T05:20:12;6.28;;;1.40;;
66966;SDS011;53900;51.468;-2.586;2023-07-13T05:22:37;6.03;;;1.50;;
66966;SDS011;53900;51.468;-2.586;2023-07-13T05:25:04;10.13;;;1.80;;
66966;SDS011;53900;51.468;-2.586;2023-07-13T05:27:29;9.18;;;2.00;;
66966;SDS011;53900;51.468;-2.586;2023-07-13T05:29:54;5.07;;;1.30;;
66966;SDS011;53900;51.468;-2.586;2023-07-13T05:32:20;4.50;;;1.38;;
66966;SDS011;53900;51.468;-2.586;2023-07-13T05:34:45;5.28;;;1.42;;
66966;SDS011;53900;51.468;-2.586;2023-07-13T05:37:10;4.80;;;1.40;;
66966;SDS011;53900;51.468;-2.586;2023-07-13T05:39:35;3.92;;;1.40;;
66966;SDS011;53900;51.468;-2.586;2023-07-13T05:42:01;5.20;;;1.30;;
66966;SDS011;53900;51.468;-2.586;2023-07-13T05:44:27;4.07;;;1.30;;
66966;SDS011;53900;51.468;-2.586;2023-07-13T05:46:52;3.63;;;1.10;;
66966;SDS011;53900;51.468;-2.586;2023-07-13T05:49:17;5.93;;;1.45;;
66966;SDS011;53900;51.468;-2.586;2023-07-13T05:51:43;5.80;;;1.50;;
66966;SDS011;53900;51.468;-2.586;2023-07-13T05:54:08;2.85;;;1.30;;
66966;SDS011;53900;51.468;-2.586;2023-07-13T05:56:33;3.13;;;1.00;;
66966;SDS011;53900;51.468;-2.586;2023-07-13T05:58:58;5.28;;;1.27;;
66966;SDS011;53900;51.468;-2.586;2023-07-13T06:01:23;6.07;;;1.50;;
66966;SDS011;53900;51.468;-2.586;2023-07-13T06:03:49;2.92;;;1.23;;
66966;SDS011;53900;51.468;-2.586;2023-07-13T06:06:15;6.00;;;1.48;;
66966;SDS011;53900;51.468;-2.586;2023-07-13T06:08:40;3.03;;;1.33;;
66966;SDS011;53900;51.468;-2.586;2023-07-13T06:11:13;4.05;;;1.42;;
66966;SDS011;53900;51.468;-2.586;2023-07-13T06:13:39;3.60;;;1.30;;
66966;SDS011;53900;51.468;-2.586;2023-07-13T06:16:04;4.20;;;1.40;;
66966;SDS011;53900;51.468;-2.586;2023-07-13T06:18:30;5.20;;;1.20;;
66966;SDS011;53900;51.468;-2.586;2023-07-13T06:20:56;3.08;;;0.98;;
66966;SDS011;53900;51.468;-2.586;2023-07-13T06:23:22;2.45;;;1.08;;
66966;SDS011;53900;51.468;-2.586;2023-07-13T06:25:47;5.90;;;1.95;;
66966;SDS011;53900;51.468;-2.586;2023-07-13T06:28:12;4.38;;;1.50;;
66966;SDS011;53900;51.468;-2.586;2023-07-13T06:30:38;5.45;;;1.42;;
66966;SDS011;53900;51.468;-2.586;2023-07-13T06:33:04;2.92;;;1.10;;
66966;SDS011;53900;51.468;-2.586;2023-07-13T06:35:29;4.35;;;1.42;;
66966;SDS011;53900;51.468;-2.586;2023-07-13T06:37:54;10.95;;;1.45;;
66966;SDS011;53900;51.468;-2.586;2023-07-13T06:40:20;3.53;;;1.20;;
66966;SDS011;53900;51.468;-2.586;2023-07-13T06:42:45;7.60;;;1.38;;
66966;SDS011;53900;51.468;-2.586;2023-07-13T06:45:10;3.38;;;1.27;;
66966;SDS011;53900;51.468;-2.586;2023-07-13T06:47:35;3.72;;;1.33;;
66966;SDS011;53900;51.468;-2.586;2023-07-13T06:50:01;9.77;;;1.50;;
66966;SDS011;53900;51.468;-2.586;2023-07-13T06:52:26;5.20;;;2.35;;
66966;SDS011;53900;51.468;-2.586;2023-07-13T06:54:51;4.28;;;1.92;;
66966;SDS011;53900;51.468;-2.586;2023-07-13T06:57:17;10.85;;;4.53;;
66966;SDS011;53900;51.468;-2.586;2023-07-13T06:59:42;9.07;;;2.88;;
66966;SDS011;53900;51.468;-2.586;2023-07-13T07:02:09;7.95;;;1.77;;
66966;SDS011;53900;51.468;-2.586;2023-07-13T07:04:36;9.77;;;1.60;;
66966;SDS011;53900;51.468;-2.586;2023-07-13T07:07:01;11.40;;;1.75;;
66966;SDS011;53900;51.468;-2.586;2023-07-13T07:09:26;7.72;;;1.80;;
66966;SDS011;53900;51.468;-2.586;2023-07-13T07:11:52;4.35;;;1.08;;
66966;SDS011;53900;51.468;-2.586;2023-07-13T07:14:17;4.80;;;1.20;;
66966;SDS011;53900;51.468;-2.586;2023-07-13T07:16:42;4.45;;;1.38;;
66966;SDS011;53900;51.468;-2.586;2023-07-13T07:19:08;3.80;;;1.13;;
66966;SDS011;53900;51.468;-2.586;2023-07-13T07:21:33;3.50;;;1.20;;
66966;SDS011;53900;51.468;-2.586;2023-07-13T07:23:58;9.93;;;1.10;;
66966;SDS011;53900;51.468;-2.586;2023-07-13T07:26:24;1.73;;;0.88;;
66966;SDS011;53900;51.468;-2.586;2023-07-13T07:28:50;4.43;;;1.63;;
66966;SDS011;53900;51.468;-2.586;2023-07-13T07:31:15;2.22;;;0.90;;
66966;SDS011;53900;51.468;-2.586;2023-07-13T07:33:40;1.30;;;0.80;;
66966;SDS011;53900;51.468;-2.586;2023-07-13T07:36:06;4.13;;;0.88;;
66966;SDS011;53900;51.468;-2.586;2023-07-13T07:38:31;4.05;;;0.80;;
66966;SDS011;53900;51.468;-2.586;2023-07-13T07:40:56;5.28;;;1.05;;
66966;SDS011;53900;51.468;-2.586;2023-07-13T07:43:21;2.40;;;0.90;;
66966;SDS011;53900;51.468;-2.586;2023-07-13T07:45:47;4.63;;;1.10;;
66966;SDS011;53900;51.468;-2.586;2023-07-13T07:48:12;1.38;;;0.80;;
66966;SDS011;53900;51.468;-2.586;2023-07-13T07:50:37;1.95;;;1.00;;
66966;SDS011;53900;51.468;-2.586;2023-07-13T07:53:04;1.67;;;1.02;;
66966;SDS011;53900;51.468;-2.586;2023-07-13T07:55:32;5.47;;;1.20;;
66966;SDS011;53900;51.468;-2.586;2023-07-13T07:57:57;2.30;;;0.95;;
66966;SDS011;53900;51.468;-2.586;2023-07-13T08:00:22;1.50;;;0.98;;
66966;SDS011;53900;51.468;-2.586;2023-07-13T08:02:48;1.52;;;1.13;;
66966;SDS011;53900;51.468;-2.586;2023-07-13T08:05:13;2.50;;;1.20;;
66966;SDS011;53900;51.468;-2.586;2023-07-13T08:07:38;3.03;;;1.23;;
66966;SDS011;53900;51.468;-2.586;2023-07-13T08:10:07;5.22;;;1.40;;
66966;SDS011;53900;51.468;-2.586;2023-07-13T08:12:36;5.43;;;1.27;;
66966;SDS011;53900;51.468;-2.586;2023-07-13T08:15:01;2.72;;;1.05;;
66966;SDS011;53900;51.468;-2.586;2023-07-13T08:17:27;4.40;;;1.20;;
66966;SDS011;53900;51.468;-2.586;2023-07-13T08:19:52;2.92;;;1.10;;
66966;SDS011;53900;51.468;-2.586;2023-07-13T08:22:17;3.80;;;1.27;;
66966;SDS011;53900;51.468;-2.586;2023-07-13T08:24:43;3.90;;;1.17;;
66966;SDS011;53900;51.468;-2.586;2023-07-13T08:27:08;3.97;;;1.70;;
66966;SDS011;53900;51.468;-2.586;2023-07-13T08:29:34;2.70;;;1.38;;
66966;SDS011;53900;51.468;-2.586;2023-07-13T08:31:59;3.65;;;1.10;;
66966;SDS011;53900;51.468;-2.586;2023-07-13T08:34:24;1.60;;;1.00;;
66966;SDS011;53900;51.468;-2.586;2023-07-13T08:36:50;4.95;;;1.30;;
66966;SDS011;53900;51.468;-2.586;2023-07-13T08:39:15;6.95;;;1.40;;
66966;SDS011;53900;51.468;-2.586;2023-07-13T08:41:40;8.45;;;1.40;;
66966;SDS011;53900;51.468;-2.586;2023-07-13T08:44:07;5.18;;;1.70;;
66966;SDS011;53900;51.468;-2.586;2023-07-13T08:46:40;6.07;;;1.30;;
66966;SDS011;53900;51.468;-2.586;2023-07-13T08:49:09;4.18;;;1.40;;
66966;SDS011;53900;51.468;-2.586;2023-07-13T08:51:44;5.28;;;1.80;;
66966;SDS011;53900;51.468;-2.586;2023-07-13T08:54:16;7.40;;;1.55;;
66966;SDS011;53900;51.468;-2.586;2023-07-13T08:56:43;3.20;;;1.70;;
66966;SDS011;53900;51.468;-2.586;2023-07-13T08:59:11;3.33;;;1.40;;
66966;SDS011;53900;51.468;-2.586;2023-07-13T09:01:45;4.78;;;1.10;;
66966;SDS011;53900;51.468;-2.586;2023-07-13T09:04:16;7.43;;;2.08;;
66966;SDS011;53900;51.468;-2.586;2023-07-13T09:14:42;7.97;;;1.20;;
66966;SDS011;53900;51.468;-2.586;2023-07-13T09:17:13;2.25;;;1.00;;
66966;SDS011;53900;51.468;-2.586;2023-07-13T09:19:39;3.25;;;1.10;;
66966;SDS011;53900;51.468;-2.586;2023-07-13T09:22:06;3.92;;;1.23;;
66966;SDS011;53900;51.468;-2.586;2023-07-13T09:24:36;1.75;;;1.15;;
66966;SDS011;53900;51.468;-2.586;2023-07-13T09:27:03;2.42;;;0.73;;
66966;SDS011;53900;51.468;-2.586;2023-07-13T09:29:33;1.40;;;0.80;;
66966;SDS011;53900;51.468;-2.586;2023-07-13T09:32:03;2.75;;;0.93;;
66966;SDS011;53900;51.468;-2.586;2023-07-13T09:34:29;2.60;;;0.77;;
66966;SDS011;53900;51.468;-2.586;2023-07-13T09:36:55;3.70;;;0.93;;
66966;SDS011;53900;51.468;-2.586;2023-07-13T09:39:28;2.28;;;0.73;;
66966;SDS011;53900;51.468;-2.586;2023-07-13T09:44:33;2.70;;;1.30;;
66966;SDS011;53900;51.468;-2.586;2023-07-13T09:47:00;1.55;;;0.95;;
66966;SDS011;53900;51.468;-2.586;2023-07-13T09:49:28;6.00;;;0.90;;
66966;SDS011;53900;51.468;-2.586;2023-07-13T09:51:57;1.00;;;0.80;;
66966;SDS011;53900;51.468;-2.586;2023-07-13T09:54:24;1.98;;;0.77;;
66966;SDS011;53900;51.468;-2.586;2023-07-13T09:56:53;3.03;;;1.08;;
66966;SDS011;53900;51.468;-2.586;2023-07-13T09:59:23;4.10;;;0.98;;
66966;SDS011;53900;51.468;-2.586;2023-07-13T10:04:16;3.75;;;1.05;;
66966;SDS011;53900;51.468;-2.586;2023-07-13T10:06:43;3.78;;;1.10;;
66966;SDS011;53900;51.468;-2.586;2023-07-13T10:09:09;2.92;;;1.00;;
66966;SDS011;53900;51.468;-2.586;2023-07-13T10:11:34;5.82;;;0.90;;
66966;SDS011;53900;51.468;-2.586;2023-07-13T10:14:21;2.15;;;0.90;;
66966;SDS011;53900;51.468;-2.586;2023-07-13T10:16:48;5.00;;;1.15;;
66966;SDS011;53900;51.468;-2.586;2023-07-13T10:19:19;5.22;;;1.25;;
66966;SDS011;53900;51.468;-2.586;2023-07-13T10:21:54;6.80;;;1.10;;
66966;SDS011;53900;51.468;-2.586;2023-07-13T10:24:27;3.28;;;0.90;;
66966;SDS011;53900;51.468;-2.586;2023-07-13T10:29:36;2.88;;;0.80;;
66966;SDS011;53900;51.468;-2.586;2023-07-13T10:32:02;3.25;;;0.90;;
66966;SDS011;53900;51.468;-2.586;2023-07-13T10:34:28;1.75;;;0.82;;
66966;SDS011;53900;51.468;-2.586;2023-07-13T10:36:53;3.15;;;0.90;;
66966;SDS011;53900;51.468;-2.586;2023-07-13T10:39:23;2.92;;;1.00;;
66966;SDS011;53900;51.468;-2.586;2023-07-13T10:41:50;5.35;;;1.10;;
66966;SDS011;53900;51.468;-2.586;2023-07-13T10:44:28;2.13;;;0.88;;
66966;SDS011;53900;51.468;-2.586;2023-07-13T10:46:56;3.15;;;0.90;;
66966;SDS011;53900;51.468;-2.586;2023-07-13T10:49:22;2.35;;;1.10;;
66966;SDS011;53900;51.468;-2.586;2023-07-13T10:51:48;4.78;;;1.02;;
66966;SDS011;53900;51.468;-2.586;2023-07-13T10:56:42;6.40;;;1.13;;
66966;SDS011;53900;51.468;-2.586;2023-07-13T10:59:17;2.33;;;0.80;;
66966;SDS011;53900;51.468;-2.586;2023-07-13T11:04:12;4.13;;;1.20;;
66966;SDS011;53900;51.468;-2.586;2023-07-13T11:06:38;9.27;;;1.17;;
66966;SDS011;53900;51.468;-2.586;2023-07-13T11:11:44;2.58;;;1.00;;
66966;SDS011;53900;51.468;-2.586;2023-07-13T11:16:53;2.42;;;0.88;;
66966;SDS011;53900;51.468;-2.586;2023-07-13T11:22:09;2.40;;;0.90;;
66966;SDS011;53900;51.468;-2.586;2023-07-13T11:32:40;3.03;;;0.90;;
66966;SDS011;53900;51.468;-2.586;2023-07-13T11:35:09;1.70;;;0.85;;
66966;SDS011;53900;51.468;-2.586;2023-07-13T11:37:37;0.88;;;0.80;;
66966;SDS011;53900;51.468;-2.586;2023-07-13T11:40:04;6.68;;;1.10;;
66966;SDS011;53900;51.468;-2.586;2023-07-13T11:42:31;3.40;;;1.33;;
66966;SDS011;53900;51.468;-2.586;2023-07-13T11:44:56;2.30;;;0.90;;
66966;SDS011;53900;51.468;-2.586;2023-07-13T11:47:22;2.20;;;0.93;;
66966;SDS011;53900;51.468;-2.586;2023-07-13T11:49:48;1.80;;;0.80;;
66966;SDS011;53900;51.468;-2.586;2023-07-13T11:52:15;2.30;;;0.90;;
66966;SDS011;53900;51.468;-2.586;2023-07-13T11:54:48;4.70;;;1.30;;
66966;SDS011;53900;51.468;-2.586;2023-07-13T11:57:20;2.15;;;1.00;;
66966;SDS011;53900;51.468;-2.586;2023-07-13T11:59:48;2.10;;;0.90;;
66966;SDS011;53900;51.468;-2.586;2023-07-13T12:02:16;4.47;;;1.10;;
66966;SDS011;53900;51.468;-2.586;2023-07-13T12:04:42;1.90;;;0.90;;
66966;SDS011;53900;51.468;-2.586;2023-07-13T12:07:15;3.20;;;1.00;;
66966;SDS011;53900;51.468;-2.586;2023-07-13T12:09:40;1.88;;;0.70;;
66966;SDS011;53900;51.468;-2.586;2023-07-13T12:12:17;2.13;;;0.88;;
66966;SDS011;53900;51.468;-2.586;2023-07-13T12:14:43;4.32;;;1.02;;
66966;SDS011;53900;51.468;-2.586;2023-07-13T12:17:21;3.75;;;1.02;;
66966;SDS011;53900;51.468;-2.586;2023-07-13T12:19:50;4.35;;;1.30;;
66966;SDS011;53900;51.468;-2.586;2023-07-13T12:22:16;1.98;;;0.93;;
66966;SDS011;53900;51.468;-2.586;2023-07-13T12:24:41;2.45;;;0.82;;
66966;SDS011;53900;51.468;-2.586;2023-07-13T12:29:48;4.35;;;1.00;;
66966;SDS011;53900;51.468;-2.586;2023-07-13T12:32:14;3.40;;;0.85;;
66966;SDS011;53900;51.468;-2.586;2023-07-13T12:34:52;2.78;;;0.90;;
66966;SDS011;53900;51.468;-2.586;2023-07-13T12:37:18;3.30;;;1.20;;
66966;SDS011;53900;51.468;-2.586;2023-07-13T12:39:45;5.00;;;1.05;;
66966;SDS011;53900;51.468;-2.586;2023-07-13T12:44:39;1.83;;;0.90;;
66966;SDS011;53900;51.468;-2.586;2023-07-13T12:47:06;6.05;;;1.27;;
66966;SDS011;53900;51.468;-2.586;2023-07-13T12:49:39;5.85;;;1.20;;
66966;SDS011;53900;51.468;-2.586;2023-07-13T12:52:10;4.57;;;1.23;;
66966;SDS011;53900;51.468;-2.586;2023-07-13T12:54:38;6.38;;;1.20;;
66966;SDS011;53900;51.468;-2.586;2023-07-13T12:57:04;7.90;;;1.38;;
66966;SDS011;53900;51.468;-2.586;2023-07-13T12:59:30;5.20;;;1.30;;
66966;SDS011;53900;51.468;-2.586;2023-07-13T13:01:58;10.73;;;1.73;;
66966;SDS011;53900;51.468;-2.586;2023-07-13T13:04:24;5.25;;;1.50;;
66966;SDS011;53900;51.468;-2.586;2023-07-13T13:06:59;3.92;;;1.00;;
66966;SDS011;53900;51.468;-2.586;2023-07-13T13:09:25;2.75;;;1.17;;
66966;SDS011;53900;51.468;-2.586;2023-07-13T13:11:51;6.45;;;1.30;;
66966;SDS011;53900;51.468;-2.586;2023-07-13T13:14:17;4.55;;;1.20;;
66966;SDS011;53900;51.468;-2.586;2023-07-13T13:16:45;3.25;;;1.35;;
66966;SDS011;53900;51.468;-2.586;2023-07-13T13:19:13;4.65;;;1.20;;
66966;SDS011;53900;51.468;-2.586;2023-07-13T13:21:38;5.05;;;1.30;;
66966;SDS011;53900;51.468;-2.586;2023-07-13T13:24:08;4.78;;;1.30;;
66966;SDS011;53900;51.468;-2.586;2023-07-13T13:26:35;2.10;;;1.00;;
66966;SDS011;53900;51.468;-2.586;2023-07-13T13:29:00;2.10;;;1.00;;
66966;SDS011;53900;51.468;-2.586;2023-07-13T13:31:25;8.85;;;1.48;;
66966;SDS011;53900;51.468;-2.586;2023-07-13T13:33:51;10.35;;;1.13;;
66966;SDS011;53900;51.468;-2.586;2023-07-13T13:36:20;6.07;;;1.23;;
66966;SDS011;53900;51.468;-2.586;2023-07-13T13:38:45;5.10;;;1.00;;
66966;SDS011;53900;51.468;-2.586;2023-07-13T13:41:12;5.60;;;1.40;;
66966;SDS011;53900;51.468;-2.586;2023-07-13T13:43:38;6.55;;;1.48;;
66966;SDS011;53900;51.468;-2.586;2023-07-13T13:46:09;3.15;;;0.90;;
66966;SDS011;53900;51.468;-2.586;2023-07-13T13:48:37;12.10;;;1.73;;
66966;SDS011;53900;51.468;-2.586;2023-07-13T13:51:06;5.10;;;1.33;;
66966;SDS011;53900;51.468;-2.586;2023-07-13T13:53:37;5.32;;;1.30;;
66966;SDS011;53900;51.468;-2.586;2023-07-13T13:56:03;5.63;;;1.35;;
66966;SDS011;53900;51.468;-2.586;2023-07-13T13:58:28;4.53;;;1.25;;
66966;SDS011;53900;51.468;-2.586;2023-07-13T14:00:55;3.85;;;1.48;;
66966;SDS011;53900;51.468;-2.586;2023-07-13T14:03:21;5.60;;;1.40;;
66966;SDS011;53900;51.468;-2.586;2023-07-13T14:05:47;7.70;;;1.50;;
66966;SDS011;53900;51.468;-2.586;2023-07-13T14:08:16;5.47;;;1.48;;
66966;SDS011;53900;51.468;-2.586;2023-07-13T14:10:42;11.73;;;1.73;;
66966;SDS011;53900;51.468;-2.586;2023-07-13T14:13:14;9.07;;;1.60;;
66966;SDS011;53900;51.468;-2.586;2023-07-13T14:15:41;14.85;;;1.65;;
66966;SDS011;53900;51.468;-2.586;2023-07-13T14:18:07;6.47;;;1.52;;
66966;SDS011;53900;51.468;-2.586;2023-07-13T14:20:33;8.38;;;1.60;;
66966;SDS011;53900;51.468;-2.586;2023-07-13T14:22:59;7.32;;;1.60;;
66966;SDS011;53900;51.468;-2.586;2023-07-13T14:25:24;4.40;;;1.73;;
66966;SDS011;53900;51.468;-2.586;2023-07-13T14:27:51;6.80;;;1.38;;
66966;SDS011;53900;51.468;-2.586;2023-07-13T14:30:19;3.55;;;1.33;;
66966;SDS011;53900;51.468;-2.586;2023-07-13T14:32:45;4.07;;;1.52;;
66966;SDS011;53900;51.468;-2.586;2023-07-13T14:35:11;6.00;;;1.90;;
66966;SDS011;53900;51.468;-2.586;2023-07-13T14:37:37;4.63;;;1.50;;
66966;SDS011;53900;51.468;-2.586;2023-07-13T14:40:04;6.47;;;1.45;;
66966;SDS011;53900;51.468;-2.586;2023-07-13T14:42:29;2.40;;;1.50;;
66966;SDS011;53900;51.468;-2.586;2023-07-13T14:44:55;5.32;;;1.42;;
66966;SDS011;53900;51.468;-2.586;2023-07-13T14:47:20;5.22;;;1.60;;
66966;SDS011;53900;51.468;-2.586;2023-07-13T14:49:45;3.08;;;1.38;;
66966;SDS011;53900;51.468;-2.586;2023-07-13T14:54:38;10.70;;;1.70;;
66966;SDS011;53900;51.468;-2.586;2023-07-13T14:57:10;5.60;;;1.55;;
66966;SDS011;53900;51.468;-2.586;2023-07-13T14:59:35;8.30;;;1.50;;
66966;SDS011;53900;51.468;-2.586;2023-07-13T15:02:00;5.45;;;1.58;;
66966;SDS011;53900;51.468;-2.586;2023-07-13T15:04:26;6.57;;;1.60;;
66966;SDS011;53900;51.468;-2.586;2023-07-13T15:06:52;6.25;;;1.55;;
66966;SDS011;53900;51.468;-2.586;2023-07-13T15:09:18;2.05;;;1.25;;
66966;SDS011;53900;51.468;-2.586;2023-07-13T15:11:43;7.45;;;1.40;;
66966;SDS011;53900;51.468;-2.586;2023-07-13T15:14:09;6.47;;;1.48;;
66966;SDS011;53900;51.468;-2.586;2023-07-13T15:16:34;9.68;;;1.52;;
66966;SDS011;53900;51.468;-2.586;2023-07-13T15:18:59;3.78;;;1.20;;